sensor_id;sensor_type;location;lat;lon;timestamp;pressure;altitude;pressure_sealevel;temperature;humidity
63006;BME280;53704;52.532;6.426;2023-01-26T00:00:45;102518.44;;;-1.48;100.00
63006;BME280;53704;52.532;6.426;2023-01-26T00:03:11;102506.25;;;-1.52;100.00
63006;BME280;53704;52.532;6.426;2023-01-26T00:05:36;102502.69;;;-1.51;100.00
63006;BME280;53704;52.532;6.426;2023-01-26T00:08:03;102508.97;;;-1.25;100.00
63006;BME280;53704;52.532;6.426;2023-01-26T00:10:28;102503.28;;;-1.41;100.00
63006;BME280;53704;52.532;6.426;2023-01-26T00:12:54;102507.28;;;-1.57;100.00
63006;BME280;53704;52.532;6.426;2023-01-26T00:15:19;102510.19;;;-1.67;100.00
63006;BME280;53704;52.532;6.426;2023-01-26T00:17:44;102501.38;;;-1.36;100.00
63006;BME280;53704;52.532;6.426;2023-01-26T00:20:10;102504.25;;;-1.43;100.00
63006;BME280;53704;52.532;6.426;2023-01-26T00:22:36;102512.13;;;-1.42;100.00
63006;BME280;53704;52.532;6.426;2023-01-26T00:25:01;102498.56;;;-1.59;100.00
63006;BME280;53704;52.532;6.426;2023-01-26T00:27:26;102499.97;;;-1.48;100.00
63006;BME280;53704;52.532;6.426;2023-01-26T00:29:52;102504.69;;;-1.59;100.00
63006;BME280;53704;52.532;6.426;2023-01-26T00:32:18;102509.09;;;-1.28;100.00
63006;BME280;53704;52.532;6.426;2023-01-26T00:34:43;102497.59;;;-1.27;100.00
63006;BME280;53704;52.532;6.426;2023-01-26T00:37:09;102497.13;;;-1.41;100.00
63006;BME280;53704;52.532;6.426;2023-01-26T00:39:34;102494.38;;;-1.37;100.00
63006;BME280;53704;52.532;6.426;2023-01-26T00:42:00;102493.25;;;-1.28;100.00
63006;BME280;53704;52.532;6.426;2023-01-26T00:44:34;102487.75;;;-1.22;100.00
63006;BME280;53704;52.532;6.426;2023-01-26T00:47:00;102491.13;;;-1.17;100.00
63006;BME280;53704;52.532;6.426;2023-01-26T00:49:25;102491.59;;;-1.32;100.00
63006;BME280;53704;52.532;6.426;2023-01-26T00:51:50;102486.94;;;-1.54;100.00
63006;BME280;53704;52.532;6.426;2023-01-26T00:54:16;102494.72;;;-1.49;100.00
63006;BME280;53704;52.532;6.426;2023-01-26T00:56:41;102483.97;;;-1.43;100.00
63006;BME280;53704;52.532;6.426;2023-01-26T00:59:07;102475.63;;;-1.29;100.00
63006;BME280;53704;52.532;6.426;2023-01-26T01:01:33;102482.25;;;-1.16;100.00
63006;BME280;53704;52.532;6.426;2023-01-26T01:03:58;102476.88;;;-1.13;100.00
63006;BME280;53704;52.532;6.426;2023-01-26T01:06:23;102473.63;;;-1.21;100.00
63006;BME280;53704;52.532;6.426;2023-01-26T01:08:49;102474.09;;;-1.36;100.00
63006;BME280;53704;52.532;6.426;2023-01-26T01:11:14;102473.59;;;-1.49;100.00
63006;BME280;53704;52.532;6.426;2023-01-26T01:13:40;102472.00;;;-1.55;100.00
63006;BME280;53704;52.532;6.426;2023-01-26T01:16:07;102474.00;;;-1.33;100.00
63006;BME280;53704;52.532;6.426;2023-01-26T01:18:33;102464.88;;;-1.23;100.00
63006;BME280;53704;52.532;6.426;2023-01-26T01:20:59;102470.69;;;-1.40;100.00
63006;BME280;53704;52.532;6.426;2023-01-26T01:23:27;102475.41;;;-1.51;100.00
63006;BME280;53704;52.532;6.426;2023-01-26T01:25:59;102468.47;;;-1.25;100.00
63006;BME280;53704;52.532;6.426;2023-01-26T01:28:25;102464.09;;;-0.98;100.00
63006;BME280;53704;52.532;6.426;2023-01-26T01:30:50;102462.44;;;-1.01;100.00
63006;BME280;53704;52.532;6.426;2023-01-26T01:33:16;102458.13;;;-1.33;100.00
63006;BME280;53704;52.532;6.426;2023-01-26T01:35:41;102463.75;;;-1.16;100.00
63006;BME280;53704;52.532;6.426;2023-01-26T01:38:07;102471.19;;;-0.99;100.00
63006;BME280;53704;52.532;6.426;2023-01-26T01:40:32;102456.91;;;-0.93;100.00
63006;BME280;53704;52.532;6.426;2023-01-26T01:42:57;102459.22;;;-1.11;100.00
63006;BME280;53704;52.532;6.426;2023-01-26T01:45:31;102465.31;;;-1.08;100.00
63006;BME280;53704;52.532;6.426;2023-01-26T01:48:02;102463.72;;;-1.14;100.00
63006;BME280;53704;52.532;6.426;2023-01-26T01:50:35;102465.28;;;-1.07;100.00
63006;BME280;53704;52.532;6.426;2023-01-26T01:53:02;102462.59;;;-1.05;100.00
63006;BME280;53704;52.532;6.426;2023-01-26T01:55:28;102467.28;;;-1.15;100.00
63006;BME280;53704;52.532;6.426;2023-01-26T01:57:56;102461.34;;;-0.95;100.00
63006;BME280;53704;52.532;6.426;2023-01-26T02:00:23;102459.84;;;-1.02;100.00
63006;BME280;53704;52.532;6.426;2023-01-26T02:03:09;102467.69;;;-0.99;100.00
63006;BME280;53704;52.532;6.426;2023-01-26T02:08:18;102462.72;;;-1.10;100.00
63006;BME280;53704;52.532;6.426;2023-01-26T02:10:46;102462.44;;;-1.29;100.00
63006;BME280;53704;52.532;6.426;2023-01-26T02:13:15;102454.47;;;-0.99;100.00
63006;BME280;53704;52.532;6.426;2023-01-26T02:15:42;102467.19;;;-1.12;100.00
63006;BME280;53704;52.532;6.426;2023-01-26T02:18:07;102461.22;;;-1.19;100.00
63006;BME280;53704;52.532;6.426;2023-01-26T02:20:52;102454.88;;;-1.13;100.00
63006;BME280;53704;52.532;6.426;2023-01-26T02:28:19;102452.66;;;-0.99;100.00
63006;BME280;53704;52.532;6.426;2023-01-26T02:30:46;102445.75;;;-1.03;100.00
63006;BME280;53704;52.532;6.426;2023-01-26T02:33:23;102441.47;;;-0.79;100.00
63006;BME280;53704;52.532;6.426;2023-01-26T02:35:49;102441.56;;;-0.82;100.00
63006;BME280;53704;52.532;6.426;2023-01-26T02:38:16;102436.81;;;-0.99;100.00
63006;BME280;53704;52.532;6.426;2023-01-26T02:43:11;102440.41;;;-0.75;100.00
63006;BME280;53704;52.532;6.426;2023-01-26T02:45:37;102445.41;;;-0.65;100.00
63006;BME280;53704;52.532;6.426;2023-01-26T02:48:04;102441.59;;;-0.83;100.00
63006;BME280;53704;52.532;6.426;2023-01-26T02:50:31;102445.16;;;-0.84;100.00
63006;BME280;53704;52.532;6.426;2023-01-26T02:52:57;102443.31;;;-0.82;100.00
63006;BME280;53704;52.532;6.426;2023-01-26T02:55:23;102439.41;;;-0.70;100.00
63006;BME280;53704;52.532;6.426;2023-01-26T02:57:57;102443.59;;;-0.90;100.00
63006;BME280;53704;52.532;6.426;2023-01-26T03:00:28;102446.63;;;-1.02;100.00
63006;BME280;53704;52.532;6.426;2023-01-26T03:02:58;102452.22;;;-0.85;100.00
63006;BME280;53704;52.532;6.426;2023-01-26T03:05:26;102453.31;;;-0.92;100.00
63006;BME280;53704;52.532;6.426;2023-01-26T03:07:52;102450.72;;;-0.94;100.00
63006;BME280;53704;52.532;6.426;2023-01-26T03:10:18;102449.53;;;-0.83;100.00
63006;BME280;53704;52.532;6.426;2023-01-26T03:12:44;102448.13;;;-0.95;100.00
63006;BME280;53704;52.532;6.426;2023-01-26T03:15:10;102448.03;;;-0.92;100.00
63006;BME280;53704;52.532;6.426;2023-01-26T03:18:02;102447.34;;;-0.97;100.00
63006;BME280;53704;52.532;6.426;2023-01-26T03:20:47;102456.03;;;-1.22;100.00
63006;BME280;53704;52.532;6.426;2023-01-26T03:23:31;102459.22;;;-1.11;100.00
63006;BME280;53704;52.532;6.426;2023-01-26T03:26:15;102464.41;;;-1.07;100.00
63006;BME280;53704;52.532;6.426;2023-01-26T03:28:59;102463.13;;;-0.67;100.00
63006;BME280;53704;52.532;6.426;2023-01-26T03:31:24;102464.09;;;-0.98;100.00
63006;BME280;53704;52.532;6.426;2023-01-26T03:33:49;102455.53;;;-0.78;100.00
63006;BME280;53704;52.532;6.426;2023-01-26T03:36:15;102455.97;;;-0.92;100.00
63006;BME280;53704;52.532;6.426;2023-01-26T03:38:40;102467.59;;;-0.96;100.00
63006;BME280;53704;52.532;6.426;2023-01-26T03:41:06;102455.59;;;-0.80;100.00
63006;BME280;53704;52.532;6.426;2023-01-26T03:43:50;102451.25;;;-0.82;100.00
63006;BME280;53704;52.532;6.426;2023-01-26T03:46:33;102452.50;;;-0.66;100.00
63006;BME280;53704;52.532;6.426;2023-01-26T03:49:17;102451.03;;;-0.76;100.00
63006;BME280;53704;52.532;6.426;2023-01-26T03:52:01;102446.25;;;-0.63;100.00
63006;BME280;53704;52.532;6.426;2023-01-26T03:54:45;102439.72;;;-0.53;100.00
63006;BME280;53704;52.532;6.426;2023-01-26T03:57:29;102448.00;;;-0.64;100.00
63006;BME280;53704;52.532;6.426;2023-01-26T03:59:55;102437.75;;;-0.48;100.00
63006;BME280;53704;52.532;6.426;2023-01-26T04:02:20;102453.03;;;-0.56;100.00
63006;BME280;53704;52.532;6.426;2023-01-26T04:05:04;102453.72;;;-0.51;100.00
63006;BME280;53704;52.532;6.426;2023-01-26T04:07:48;102436.91;;;-0.48;100.00
63006;BME280;53704;52.532;6.426;2023-01-26T04:10:32;102437.06;;;-0.80;100.00
63006;BME280;53704;52.532;6.426;2023-01-26T04:12:58;102445.47;;;-0.67;100.00
63006;BME280;53704;52.532;6.426;2023-01-26T04:15:41;102439.97;;;-0.61;100.00
63006;BME280;53704;52.532;6.426;2023-01-26T04:18:25;102433.31;;;-0.46;100.00
63006;BME280;53704;52.532;6.426;2023-01-26T04:21:09;102442.16;;;-0.74;100.00
63006;BME280;53704;52.532;6.426;2023-01-26T04:23:54;102436.06;;;-0.49;100.00
63006;BME280;53704;52.532;6.426;2023-01-26T04:26:33;102433.41;;;-0.49;100.00
63006;BME280;53704;52.532;6.426;2023-01-26T04:29:03;102434.63;;;-0.59;100.00
63006;BME280;53704;52.532;6.426;2023-01-26T04:31:28;102428.91;;;-0.47;100.00
63006;BME280;53704;52.532;6.426;2023-01-26T04:33:54;102427.41;;;-0.29;100.00
63006;BME280;53704;52.532;6.426;2023-01-26T04:36:19;102426.81;;;-0.37;100.00
63006;BME280;53704;52.532;6.426;2023-01-26T04:38:45;102433.91;;;-0.38;100.00
63006;BME280;53704;52.532;6.426;2023-01-26T04:41:10;102420.88;;;-0.44;100.00
63006;BME280;53704;52.532;6.426;2023-01-26T04:43:36;102425.88;;;-0.88;100.00
63006;BME280;53704;52.532;6.426;2023-01-26T04:46:06;102415.34;;;-0.63;100.00
63006;BME280;53704;52.532;6.426;2023-01-26T04:48:32;102421.81;;;-0.71;100.00
63006;BME280;53704;52.532;6.426;2023-01-26T04:51:00;102422.00;;;-0.51;100.00
63006;BME280;53704;52.532;6.426;2023-01-26T04:53:26;102423.94;;;-0.31;100.00
63006;BME280;53704;52.532;6.426;2023-01-26T04:55:52;102430.31;;;-0.37;100.00
63006;BME280;53704;52.532;6.426;2023-01-26T04:58:18;102422.97;;;-0.53;100.00
63006;BME280;53704;52.532;6.426;2023-01-26T05:00:44;102416.50;;;-0.45;100.00
63006;BME280;53704;52.532;6.426;2023-01-26T05:03:14;102415.41;;;-0.64;100.00
63006;BME280;53704;52.532;6.426;2023-01-26T05:05:39;102412.34;;;-0.52;100.00
63006;BME280;53704;52.532;6.426;2023-01-26T05:08:05;102413.41;;;-0.58;100.00
63006;BME280;53704;52.532;6.426;2023-01-26T05:10:31;102410.25;;;-0.42;100.00
63006;BME280;53704;52.532;6.426;2023-01-26T05:12:57;102403.41;;;-0.49;100.00
63006;BME280;53704;52.532;6.426;2023-01-26T05:15:23;102407.81;;;-0.48;100.00
63006;BME280;53704;52.532;6.426;2023-01-26T05:17:48;102408.66;;;-0.48;100.00
63006;BME280;53704;52.532;6.426;2023-01-26T05:20:14;102411.16;;;-0.43;100.00
63006;BME280;53704;52.532;6.426;2023-01-26T05:22:40;102409.59;;;-0.49;100.00
63006;BME280;53704;52.532;6.426;2023-01-26T05:25:06;102410.72;;;-0.56;100.00
63006;BME280;53704;52.532;6.426;2023-01-26T05:27:31;102409.66;;;-0.25;100.00
63006;BME280;53704;52.532;6.426;2023-01-26T05:29:57;102402.03;;;-0.60;100.00
63006;BME280;53704;52.532;6.426;2023-01-26T05:32:25;102402.56;;;-0.50;100.00
63006;BME280;53704;52.532;6.426;2023-01-26T05:34:51;102403.53;;;-0.27;100.00
63006;BME280;53704;52.532;6.426;2023-01-26T05:37:17;102408.28;;;-0.37;100.00
63006;BME280;53704;52.532;6.426;2023-01-26T05:39:43;102407.75;;;-0.47;100.00
63006;BME280;53704;52.532;6.426;2023-01-26T05:42:12;102409.03;;;-0.33;100.00
63006;BME280;53704;52.532;6.426;2023-01-26T05:44:38;102405.47;;;-0.58;100.00
63006;BME280;53704;52.532;6.426;2023-01-26T05:47:03;102410.59;;;-0.53;100.00
63006;BME280;53704;52.532;6.426;2023-01-26T05:49:29;102407.53;;;-0.41;100.00
63006;BME280;53704;52.532;6.426;2023-01-26T05:51:55;102411.56;;;-0.30;100.00
63006;BME280;53704;52.532;6.426;2023-01-26T05:54:20;102413.09;;;-0.23;100.00
63006;BME280;53704;52.532;6.426;2023-01-26T05:56:46;102414.22;;;-0.30;100.00
63006;BME280;53704;52.532;6.426;2023-01-26T05:59:12;102415.84;;;-0.26;100.00
63006;BME280;53704;52.532;6.426;2023-01-26T06:01:38;102420.28;;;-0.27;100.00
63006;BME280;53704;52.532;6.426;2023-01-26T06:04:04;102417.22;;;-0.41;100.00
63006;BME280;53704;52.532;6.426;2023-01-26T06:06:29;102416.38;;;-0.42;100.00
63006;BME280;53704;52.532;6.426;2023-01-26T06:08:55;102419.81;;;-0.40;100.00
63006;BME280;53704;52.532;6.426;2023-01-26T06:11:21;102427.81;;;-0.16;100.00
63006;BME280;53704;52.532;6.426;2023-01-26T06:13:46;102421.72;;;-0.18;100.00
63006;BME280;53704;52.532;6.426;2023-01-26T06:16:13;102426.13;;;-0.17;100.00
63006;BME280;53704;52.532;6.426;2023-01-26T06:18:38;102422.03;;;-0.27;100.00
63006;BME280;53704;52.532;6.426;2023-01-26T06:21:04;102428.03;;;-0.73;100.00
63006;BME280;53704;52.532;6.426;2023-01-26T06:23:29;102425.38;;;-0.46;100.00
63006;BME280;53704;52.532;6.426;2023-01-26T06:25:58;102421.09;;;-0.50;100.00
63006;BME280;53704;52.532;6.426;2023-01-26T06:28:24;102425.97;;;-0.64;100.00
63006;BME280;53704;52.532;6.426;2023-01-26T06:30:50;102428.44;;;-0.33;100.00
63006;BME280;53704;52.532;6.426;2023-01-26T06:33:15;102424.16;;;-0.37;100.00
63006;BME280;53704;52.532;6.426;2023-01-26T06:35:41;102427.13;;;-0.46;100.00
63006;BME280;53704;52.532;6.426;2023-01-26T06:38:06;102427.50;;;0.17;100.00
63006;BME280;53704;52.532;6.426;2023-01-26T06:40:32;102434.09;;;0.07;100.00
63006;BME280;53704;52.532;6.426;2023-01-26T06:42:57;102436.34;;;0.17;100.00
63006;BME280;53704;52.532;6.426;2023-01-26T06:45:22;102443.91;;;0.27;100.00
63006;BME280;53704;52.532;6.426;2023-01-26T06:47:49;102444.56;;;0.10;100.00
63006;BME280;53704;52.532;6.426;2023-01-26T06:50:19;102444.63;;;-0.17;100.00
63006;BME280;53704;52.532;6.426;2023-01-26T06:52:49;102446.09;;;0.15;100.00
63006;BME280;53704;52.532;6.426;2023-01-26T06:55:19;102449.25;;;0.02;100.00
63006;BME280;53704;52.532;6.426;2023-01-26T06:57:46;102442.91;;;-0.18;100.00
63006;BME280;53704;52.532;6.426;2023-01-26T07:00:12;102445.44;;;-0.40;100.00
63006;BME280;53704;52.532;6.426;2023-01-26T07:02:37;102450.03;;;0.05;100.00
63006;BME280;53704;52.532;6.426;2023-01-26T07:05:03;102447.34;;;-0.19;100.00
63006;BME280;53704;52.532;6.426;2023-01-26T07:07:29;102451.94;;;-0.49;100.00
63006;BME280;53704;52.532;6.426;2023-01-26T07:09:54;102451.13;;;-0.26;100.00
63006;BME280;53704;52.532;6.426;2023-01-26T07:12:20;102451.09;;;-0.01;100.00
63006;BME280;53704;52.532;6.426;2023-01-26T07:14:45;102440.25;;;-0.43;100.00
63006;BME280;53704;52.532;6.426;2023-01-26T07:17:11;102462.81;;;-0.85;100.00
63006;BME280;53704;52.532;6.426;2023-01-26T07:19:36;102449.88;;;-0.41;100.00
63006;BME280;53704;52.532;6.426;2023-01-26T07:22:02;102467.16;;;-0.57;100.00
63006;BME280;53704;52.532;6.426;2023-01-26T07:24:28;102460.56;;;-0.44;100.00
63006;BME280;53704;52.532;6.426;2023-01-26T07:26:54;102466.81;;;-0.46;100.00
63006;BME280;53704;52.532;6.426;2023-01-26T07:29:20;102461.53;;;-0.21;100.00
63006;BME280;53704;52.532;6.426;2023-01-26T07:31:46;102464.31;;;-0.51;100.00
63006;BME280;53704;52.532;6.426;2023-01-26T07:34:11;102467.59;;;-0.17;100.00
63006;BME280;53704;52.532;6.426;2023-01-26T07:36:37;102464.28;;;-0.24;100.00
63006;BME280;53704;52.532;6.426;2023-01-26T07:39:03;102463.75;;;-0.34;100.00
63006;BME280;53704;52.532;6.426;2023-01-26T07:41:30;102470.53;;;-0.25;100.00
63006;BME280;53704;52.532;6.426;2023-01-26T07:43:55;102473.28;;;-0.55;100.00
63006;BME280;53704;52.532;6.426;2023-01-26T07:46:21;102485.88;;;-0.37;100.00
63006;BME280;53704;52.532;6.426;2023-01-26T07:48:47;102490.06;;;-0.29;100.00
63006;BME280;53704;52.532;6.426;2023-01-26T07:51:13;102494.06;;;-0.43;100.00
63006;BME280;53704;52.532;6.426;2023-01-26T07:53:38;102497.91;;;-0.26;100.00
63006;BME280;53704;52.532;6.426;2023-01-26T07:56:12;102490.16;;;-0.32;100.00
63006;BME280;53704;52.532;6.426;2023-01-26T07:58:38;102491.13;;;-0.35;100.00
63006;BME280;53704;52.532;6.426;2023-01-26T08:01:09;102491.47;;;-0.19;100.00
63006;BME280;53704;52.532;6.426;2023-01-26T08:03:35;102490.75;;;-0.24;100.00
63006;BME280;53704;52.532;6.426;2023-01-26T08:06:00;102497.75;;;-0.22;100.00
63006;BME280;53704;52.532;6.426;2023-01-26T08:08:26;102503.63;;;-0.13;100.00
63006;BME280;53704;52.532;6.426;2023-01-26T08:10:55;102503.19;;;-0.26;100.00
63006;BME280;53704;52.532;6.426;2023-01-26T08:13:21;102503.03;;;-0.22;100.00
63006;BME280;53704;52.532;6.426;2023-01-26T08:15:46;102511.72;;;-0.18;100.00
63006;BME280;53704;52.532;6.426;2023-01-26T08:18:12;102504.31;;;-0.33;100.00
63006;BME280;53704;52.532;6.426;2023-01-26T08:20:37;102492.06;;;-0.36;100.00
63006;BME280;53704;52.532;6.426;2023-01-26T08:23:03;102492.88;;;-0.34;100.00
63006;BME280;53704;52.532;6.426;2023-01-26T08:25:28;102485.94;;;-0.13;100.00
63006;BME280;53704;52.532;6.426;2023-01-26T08:27:53;102498.72;;;-0.51;100.00
63006;BME280;53704;52.532;6.426;2023-01-26T08:30:20;102492.72;;;-0.29;100.00
63006;BME280;53704;52.532;6.426;2023-01-26T08:32:45;102488.69;;;-0.16;100.00
63006;BME280;53704;52.532;6.426;2023-01-26T08:35:11;102491.72;;;0.00;100.00
63006;BME280;53704;52.532;6.426;2023-01-26T08:37:36;102494.78;;;-0.12;100.00
63006;BME280;53704;52.532;6.426;2023-01-26T08:40:02;102501.28;;;-0.23;100.00
63006;BME280;53704;52.532;6.426;2023-01-26T08:42:28;102495.31;;;-0.03;100.00
63006;BME280;53704;52.532;6.426;2023-01-26T08:44:53;102488.88;;;-0.21;100.00
63006;BME280;53704;52.532;6.426;2023-01-26T08:47:18;102500.75;;;-0.32;100.00
63006;BME280;53704;52.532;6.426;2023-01-26T08:49:44;102499.00;;;-0.33;100.00
63006;BME280;53704;52.532;6.426;2023-01-26T08:52:09;102508.38;;;-0.50;100.00
63006;BME280;53704;52.532;6.426;2023-01-26T08:54:35;102499.09;;;-0.37;100.00
63006;BME280;53704;52.532;6.426;2023-01-26T08:57:00;102499.56;;;-0.49;100.00
63006;BME280;53704;52.532;6.426;2023-01-26T08:59:26;102499.19;;;-0.13;100.00
63006;BME280;53704;52.532;6.426;2023-01-26T09:01:51;102498.09;;;-0.32;100.00
63006;BME280;53704;52.532;6.426;2023-01-26T09:04:16;102512.81;;;-0.50;100.00
63006;BME280;53704;52.532;6.426;2023-01-26T09:06:42;102498.22;;;-0.35;100.00
63006;BME280;53704;52.532;6.426;2023-01-26T09:09:07;102500.00;;;-0.36;100.00
63006;BME280;53704;52.532;6.426;2023-01-26T09:11:39;102496.00;;;0.03;100.00
63006;BME280;53704;52.532;6.426;2023-01-26T09:14:04;102506.09;;;-0.34;100.00
63006;BME280;53704;52.532;6.426;2023-01-26T09:16:30;102513.47;;;-0.44;100.00
63006;BME280;53704;52.532;6.426;2023-01-26T09:18:55;102509.97;;;-0.44;100.00
63006;BME280;53704;52.532;6.426;2023-01-26T09:21:21;102514.69;;;-0.27;100.00
63006;BME280;53704;52.532;6.426;2023-01-26T09:23:48;102508.34;;;-0.22;100.00
63006;BME280;53704;52.532;6.426;2023-01-26T09:26:13;102514.44;;;-0.46;100.00
63006;BME280;53704;52.532;6.426;2023-01-26T09:28:39;102507.16;;;-0.40;100.00
63006;BME280;53704;52.532;6.426;2023-01-26T09:31:07;102510.94;;;-0.47;100.00
63006;BME280;53704;52.532;6.426;2023-01-26T09:33:34;102509.09;;;-0.18;100.00
63006;BME280;53704;52.532;6.426;2023-01-26T09:36:07;102515.13;;;-0.41;100.00
63006;BME280;53704;52.532;6.426;2023-01-26T09:38:33;102517.88;;;-0.43;100.00
63006;BME280;53704;52.532;6.426;2023-01-26T09:43:52;102511.63;;;-0.42;100.00
63006;BME280;53704;52.532;6.426;2023-01-26T09:51:37;102523.56;;;-0.28;100.00
63006;BME280;53704;52.532;6.426;2023-01-26T09:54:32;102516.97;;;-0.16;100.00
63006;BME280;53704;52.532;6.426;2023-01-26T09:57:00;102528.31;;;-0.13;100.00
63006;BME280;53704;52.532;6.426;2023-01-26T09:59:35;102524.25;;;-0.23;100.00
63006;BME280;53704;52.532;6.426;2023-01-26T10:04:56;102525.25;;;-0.01;100.00
63006;BME280;53704;52.532;6.426;2023-01-26T10:07:23;102527.19;;;-0.06;100.00
63006;BME280;53704;52.532;6.426;2023-01-26T10:09:50;102525.25;;;-0.01;100.00
63006;BME280;53704;52.532;6.426;2023-01-26T10:12:33;102531.91;;;0.11;100.00
63006;BME280;53704;52.532;6.426;2023-01-26T10:15:18;102530.66;;;0.22;100.00
63006;BME280;53704;52.532;6.426;2023-01-26T10:17:48;102527.56;;;0.34;100.00
63006;BME280;53704;52.532;6.426;2023-01-26T10:23:00;102537.66;;;0.48;100.00
63006;BME280;53704;52.532;6.426;2023-01-26T10:25:38;102532.13;;;0.54;100.00
63006;BME280;53704;52.532;6.426;2023-01-26T10:28:15;102530.84;;;0.64;100.00
63006;BME280;53704;52.532;6.426;2023-01-26T10:30:43;102524.47;;;0.70;100.00
63006;BME280;53704;52.532;6.426;2023-01-26T10:33:15;102524.97;;;0.80;100.00
63006;BME280;53704;52.532;6.426;2023-01-26T10:35:42;102529.66;;;0.97;100.00
63006;BME280;53704;52.532;6.426;2023-01-26T10:40:53;102523.28;;;1.23;100.00
63006;BME280;53704;52.532;6.426;2023-01-26T10:43:19;102519.84;;;1.43;100.00
63006;BME280;53704;52.532;6.426;2023-01-26T10:45:46;102517.16;;;1.65;100.00
63006;BME280;53704;52.532;6.426;2023-01-26T10:48:20;102515.81;;;1.75;100.00
63006;BME280;53704;52.532;6.426;2023-01-26T10:50:47;102506.28;;;1.92;100.00
63006;BME280;53704;52.532;6.426;2023-01-26T10:56:00;102511.31;;;2.39;100.00
63006;BME280;53704;52.532;6.426;2023-01-26T11:01:14;102512.59;;;2.68;100.00
63006;BME280;53704;52.532;6.426;2023-01-26T11:06:27;102508.75;;;2.95;100.00
63006;BME280;53704;52.532;6.426;2023-01-26T11:08:53;102504.53;;;3.08;100.00
63006;BME280;53704;52.532;6.426;2023-01-26T11:11:26;102514.44;;;3.23;100.00
63006;BME280;53704;52.532;6.426;2023-01-26T11:14:16;102517.53;;;3.33;100.00
63006;BME280;53704;52.532;6.426;2023-01-26T11:16:52;102511.38;;;3.50;100.00
63006;BME280;53704;52.532;6.426;2023-01-26T11:22:05;102512.38;;;3.83;100.00
63006;BME280;53704;52.532;6.426;2023-01-26T11:24:59;102511.63;;;3.80;100.00
63006;BME280;53704;52.532;6.426;2023-01-26T11:27:41;102503.69;;;3.96;100.00
63006;BME280;53704;52.532;6.426;2023-01-26T11:38:44;102506.78;;;4.40;100.00
63006;BME280;53704;52.532;6.426;2023-01-26T11:52:02;102495.66;;;4.81;100.00
63006;BME280;53704;52.532;6.426;2023-01-26T11:57:34;102498.41;;;4.79;100.00
63006;BME280;53704;52.532;6.426;2023-01-26T12:00:13;102492.44;;;4.74;100.00
63006;BME280;53704;52.532;6.426;2023-01-26T12:02:42;102488.75;;;4.93;100.00
63006;BME280;53704;52.532;6.426;2023-01-26T12:05:28;102486.41;;;5.02;100.00
63006;BME280;53704;52.532;6.426;2023-01-26T12:10:35;102477.13;;;5.10;100.00
63006;BME280;53704;52.532;6.426;2023-01-26T12:15:57;102473.38;;;5.28;100.00
63006;BME280;53704;52.532;6.426;2023-01-26T12:18:49;102466.34;;;5.27;100.00
63006;BME280;53704;52.532;6.426;2023-01-26T12:21:19;102459.00;;;5.31;100.00
63006;BME280;53704;52.532;6.426;2023-01-26T12:23:55;102467.41;;;5.39;100.00
63006;BME280;53704;52.532;6.426;2023-01-26T12:26:24;102463.84;;;5.24;100.00
63006;BME280;53704;52.532;6.426;2023-01-26T12:29:00;102452.84;;;5.14;100.00
63006;BME280;53704;52.532;6.426;2023-01-26T12:31:47;102444.13;;;5.27;100.00
63006;BME280;53704;52.532;6.426;2023-01-26T12:34:13;102437.31;;;5.51;100.00
63006;BME280;53704;52.532;6.426;2023-01-26T12:39:34;102435.75;;;5.63;100.00
63006;BME280;53704;52.532;6.426;2023-01-26T12:44:52;102426.63;;;5.51;100.00
63006;BME280;53704;52.532;6.426;2023-01-26T12:47:33;102416.63;;;5.55;100.00
63006;BME280;53704;52.532;6.426;2023-01-26T12:50:36;102406.38;;;5.77;100.00
63006;BME280;53704;52.532;6.426;2023-01-26T12:55:55;102400.25;;;5.90;100.00
63006;BME280;53704;52.532;6.426;2023-01-26T12:58:34;102399.41;;;5.89;100.00
63006;BME280;53704;52.532;6.426;2023-01-26T13:03:33;102392.81;;;5.66;100.00
63006;BME280;53704;52.532;6.426;2023-01-26T13:11:00;102396.66;;;6.20;100.00
63006;BME280;53704;52.532;6.426;2023-01-26T13:13:56;102392.56;;;6.28;100.00
63006;BME280;53704;52.532;6.426;2023-01-26T13:18:52;102384.84;;;6.09;100.00
63006;BME280;53704;52.532;6.426;2023-01-26T13:26:43;102386.56;;;6.10;100.00
63006;BME280;53704;52.532;6.426;2023-01-26T13:34:40;102379.66;;;6.21;100.00
63006;BME280;53704;52.532;6.426;2023-01-26T13:37:15;102378.81;;;6.20;100.00
63006;BME280;53704;52.532;6.426;2023-01-26T13:39:46;102382.16;;;6.09;100.00
63006;BME280;53704;52.532;6.426;2023-01-26T13:42:35;102388.25;;;6.11;100.00
63006;BME280;53704;52.532;6.426;2023-01-26T13:45:13;102386.94;;;6.04;100.00
63006;BME280;53704;52.532;6.426;2023-01-26T13:47:44;102387.59;;;6.08;100.00
63006;BME280;53704;52.532;6.426;2023-01-26T13:52:46;102386.16;;;6.02;100.00
63006;BME280;53704;52.532;6.426;2023-01-26T13:55:20;102396.00;;;6.02;100.00
63006;BME280;53704;52.532;6.426;2023-01-26T13:57:46;102385.22;;;6.03;100.00
63006;BME280;53704;52.532;6.426;2023-01-26T14:00:14;102389.63;;;6.04;100.00
63006;BME280;53704;52.532;6.426;2023-01-26T14:02:40;102391.50;;;6.02;100.00
63006;BME280;53704;52.532;6.426;2023-01-26T14:05:06;102385.41;;;6.00;100.00
63006;BME280;53704;52.532;6.426;2023-01-26T14:07:39;102387.50;;;6.09;100.00
63006;BME280;53704;52.532;6.426;2023-01-26T14:10:06;102397.03;;;5.99;100.00
63006;BME280;53704;52.532;6.426;2023-01-26T14:12:35;102386.44;;;5.97;100.00
63006;BME280;53704;52.532;6.426;2023-01-26T14:15:06;102393.41;;;6.00;100.00
63006;BME280;53704;52.532;6.426;2023-01-26T14:17:34;102390.56;;;6.03;100.00
63006;BME280;53704;52.532;6.426;2023-01-26T14:20:28;102388.25;;;5.97;100.00
63006;BME280;53704;52.532;6.426;2023-01-26T14:23:20;102397.09;;;5.83;100.00
63006;BME280;53704;52.532;6.426;2023-01-26T14:28:27;102400.66;;;5.84;100.00
63006;BME280;53704;52.532;6.426;2023-01-26T14:30:59;102407.31;;;5.76;100.00
63006;BME280;53704;52.532;6.426;2023-01-26T14:33:26;102406.38;;;5.77;100.00